Time;durP1;ratioP1;P1;durP2;ratioP2;P2;SDS_P1;SDS_P2;PMS_P1;PMS_P2;Temp;Humidity;BMP_temperature;BMP_pressure;BME280_temperature;BME280_humidity;BME280_pressure;Samples;Min_cycle;Max_cycle;Signal;HPM_P1;HPM_P2
2021/07/27 00:00:11;;;;;;;31.23;28.70;;;;;;;20.13;100.00;98651.50;2089345;28;20469;-77
2021/07/27 00:01:13;;;;;;;33.37;30.00;;;;;;;20.12;100.00;98651.88;2089463;28;20458;-79
2021/07/27 00:02:13;;;;;;;31.83;28.80;;;;;;;20.12;100.00;98658.06;2089416;28;20445;-79
2021/07/27 00:03:15;;;;;;;32.50;29.67;;;;;;;20.11;100.00;98661.94;2089284;28;20517;-79
2021/07/27 00:04:15;;;;;;;32.57;29.30;;;;;;;20.12;100.00;98658.06;2089245;28;20719;-79
2021/07/27 00:05:19;;;;;;;32.77;30.00;;;;;;;20.15;100.00;98668.16;2089399;28;20926;-78
2021/07/27 00:06:19;;;;;;;32.77;29.73;;;;;;;20.17;100.00;98665.09;2088838;28;20242;-79
2021/07/27 00:07:21;;;;;;;31.57;28.87;;;;;;;20.22;100.00;98668.25;2088912;28;21025;-78
2021/07/27 00:08:21;;;;;;;31.90;29.00;;;;;;;20.29;100.00;98668.34;2088930;28;20317;-75
2021/07/27 00:09:23;;;;;;;32.47;29.57;;;;;;;20.44;100.00;98677.44;2089090;28;20465;-78
2021/07/27 00:10:24;;;;;;;31.17;28.43;;;;;;;20.57;100.00;98684.16;2089333;28;20226;-78
2021/07/27 00:11:26;;;;;;;29.80;27.10;;;;;;;20.72;100.00;98676.94;2089293;28;20457;-78
2021/07/27 00:12:26;;;;;;;30.70;27.80;;;;;;;20.75;100.00;98683.56;2088500;28;20546;-78
2021/07/27 00:13:28;;;;;;;29.70;26.80;;;;;;;20.80;100.00;98688.66;2088776;28;20457;-79
2021/07/27 00:14:30;;;;;;;31.40;27.20;;;;;;;20.83;100.00;98690.59;2089517;28;20665;-79
2021/07/27 00:15:31;;;;;;;30.70;27.43;;;;;;;20.83;100.00;98710.34;2089313;28;20454;-78
2021/07/27 00:16:32;;;;;;;29.83;26.90;;;;;;;20.90;100.00;98723.22;2089292;28;20460;-79
2021/07/27 00:17:34;;;;;;;30.73;27.53;;;;;;;20.89;100.00;98727.88;2089240;28;20515;-78
2021/07/27 00:18:34;;;;;;;29.63;27.10;;;;;;;20.83;100.00;98742.91;2089309;28;20681;-78
2021/07/27 00:19:36;;;;;;;30.03;27.33;;;;;;;20.79;100.00;98744.03;2088245;28;20500;-78
2021/07/27 00:20:37;;;;;;;29.80;27.20;;;;;;;20.71;100.00;98751.31;2079905;28;20231;-76
2021/07/27 00:21:38;;;;;;;30.93;28.03;;;;;;;20.63;100.00;98746.94;2088525;28;20973;-78
2021/07/27 00:22:39;;;;;;;30.47;27.47;;;;;;;20.60;100.00;98756.63;2089237;28;20696;-77
2021/07/27 00:23:41;;;;;;;29.90;27.30;;;;;;;20.58;100.00;98760.81;2089288;28;20810;-78
2021/07/27 00:24:41;;;;;;;30.93;27.73;;;;;;;20.56;100.00;98760.41;2089204;28;20460;-78
2021/07/27 00:25:44;;;;;;;31.37;28.40;;;;;;;20.56;100.00;98768.56;2088434;28;20473;-78
2021/07/27 00:26:44;;;;;;;30.67;27.73;;;;;;;20.57;100.00;98772.81;2088612;28;20219;-78
2021/07/27 00:27:46;;;;;;;30.57;27.80;;;;;;;20.57;100.00;98789.09;2088433;28;20473;-78
2021/07/27 00:28:46;;;;;;;30.97;28.03;;;;;;;20.51;100.00;98788.66;2080341;28;20627;-78
2021/07/27 00:29:49;;;;;;;28.87;26.30;;;;;;;20.48;100.00;98777.75;2088506;28;20458;-78
2021/07/27 00:30:50;;;;;;;31.90;28.63;;;;;;;20.51;100.00;98766.19;2089183;28;20243;-77
2021/07/27 00:31:52;;;;;;;30.77;27.63;;;;;;;20.50;100.00;98751.84;2088918;28;20456;-78
2021/07/27 00:32:52;;;;;;;30.77;27.77;;;;;;;20.47;100.00;98736.31;2088604;28;20676;-76
2021/07/27 00:33:54;;;;;;;30.30;27.33;;;;;;;20.49;100.00;98735.94;2088372;28;20811;-77
2021/07/27 00:34:54;;;;;;;30.23;27.47;;;;;;;20.47;100.00;98730.13;2088481;28;20226;-78
2021/07/27 00:35:56;;;;;;;29.47;26.67;;;;;;;20.51;100.00;98731.72;2088344;28;20445;-78
2021/07/27 00:36:57;;;;;;;29.73;27.10;;;;;;;20.55;100.00;98734.47;2080111;28;20231;-79
2021/07/27 00:38:08;;;;;;;30.30;27.43;;;;;;;20.55;100.00;98723.63;2088215;28;20454;-78
2021/07/27 00:39:08;;;;;;;29.60;27.20;;;;;;;20.54;100.00;98735.63;2088031;28;20230;-78
2021/07/27 00:40:11;;;;;;;29.83;27.37;;;;;;;20.53;100.00;98732.13;2088219;28;20477;-78
2021/07/27 00:41:12;;;;;;;30.70;27.50;;;;;;;20.54;100.00;98738.34;2088344;28;20238;-78
2021/07/27 00:42:14;;;;;;;30.00;27.33;;;;;;;20.51;100.00;98739.09;2088292;28;20496;-79
2021/07/27 00:43:17;;;;;;;31.20;28.40;;;;;;;20.54;100.00;98738.34;2080142;28;20230;-78
2021/07/27 00:44:18;;;;;;;30.43;27.70;;;;;;;20.47;100.00;98741.72;2088334;28;20852;-79
2021/07/27 00:45:20;;;;;;;29.43;26.43;;;;;;;20.39;100.00;98744.69;2089121;28;20460;-78
2021/07/27 00:46:22;;;;;;;29.70;27.10;;;;;;;20.38;100.00;98732.31;2088349;28;20445;-78
2021/07/27 00:47:22;;;;;;;30.80;28.10;;;;;;;20.38;100.00;98719.53;2087893;28;20453;-78
2021/07/27 00:48:24;;;;;;;30.40;27.60;;;;;;;20.42;100.00;98711.47;2088214;28;20453;-79
2021/07/27 00:49:25;;;;;;;29.77;27.27;;;;;;;20.49;100.00;98693.34;2088357;28;20693;-78
2021/07/27 00:50:27;;;;;;;30.27;27.37;;;;;;;20.51;100.00;98693.00;2088198;28;20485;-79
2021/07/27 00:51:29;;;;;;;31.17;28.13;;;;;;;20.51;100.00;98690.28;2088411;28;20230;-78
2021/07/27 00:52:30;;;;;;;31.10;27.83;;;;;;;20.43;100.00;98702.97;2089076;28;20454;-79
2021/07/27 00:53:31;;;;;;;28.13;25.53;;;;;;;20.44;100.00;98701.06;2088225;28;20548;-78
2021/07/27 00:54:33;;;;;;;27.93;25.40;;;;;;;20.45;100.00;98700.69;2088194;28;20472;-78
2021/07/27 00:55:34;;;;;;;28.00;24.97;;;;;;;20.31;100.00;98687.69;2088168;28;20249;-79
2021/07/27 00:56:36;;;;;;;27.73;25.10;;;;;;;20.36;100.00;98677.69;2088174;28;20462;-77
2021/07/27 00:57:38;;;;;;;27.03;24.90;;;;;;;20.41;100.00;98674.66;2079903;28;20318;-75
2021/07/27 00:58:40;;;;;;;26.67;24.33;;;;;;;20.41;100.00;98680.06;2088272;28;20461;-76
2021/07/27 00:59:40;;;;;;;26.67;24.37;;;;;;;20.29;100.00;98681.88;2088902;28;20815;-76
2021/07/27 01:00:43;;;;;;;25.80;23.43;;;;;;;20.21;100.00;98677.53;2088923;28;20466;-77
2021/07/27 01:01:44;;;;;;;24.93;22.93;;;;;;;20.11;100.00;98674.69;2088870;28;20721;-77
2021/07/27 01:02:46;;;;;;;24.50;22.67;;;;;;;20.01;100.00;98670.72;2088840;28;20879;-77
2021/07/27 01:03:46;;;;;;;25.07;23.10;;;;;;;19.96;100.00;98674.50;2088965;28;20228;-77
2021/07/27 01:04:48;;;;;;;25.37;23.23;;;;;;;19.88;100.00;98666.66;2088984;28;20453;-76
2021/07/27 01:05:50;;;;;;;25.27;23.07;;;;;;;19.91;100.00;98665.94;2088270;28;20226;-77
2021/07/27 01:06:51;;;;;;;25.57;23.53;;;;;;;19.86;100.00;98647.31;2080089;28;20505;-77
2021/07/27 01:07:53;;;;;;;26.37;23.97;;;;;;;19.92;100.00;98637.72;2087913;28;20556;-76
2021/07/27 01:08:54;;;;;;;25.47;23.47;;;;;;;19.85;100.00;98637.63;2088908;28;20461;-76
2021/07/27 01:09:55;;;;;;;25.30;23.30;;;;;;;19.75;100.00;98631.72;2088541;28;20541;-77
2021/07/27 01:10:56;;;;;;;26.73;24.30;;;;;;;19.66;100.00;98633.91;2088446;28;20461;-77
2021/07/27 01:11:59;;;;;;;25.80;23.57;;;;;;;19.61;100.00;98645.03;2079900;28;20227;-76
2021/07/27 01:13:00;;;;;;;26.03;23.80;;;;;;;19.55;100.00;98646.50;2088258;28;20491;-77
2021/07/27 01:14:01;;;;;;;26.37;23.90;;;;;;;19.51;100.00;98650.28;2088951;28;20476;-77
2021/07/27 01:15:03;;;;;;;26.90;24.40;;;;;;;19.49;100.00;98650.66;2088050;28;20449;-76
2021/07/27 01:16:08;;;;;;;25.47;23.47;;;;;;;19.54;100.00;98650.31;2080128;28;20258;-77
2021/07/27 01:17:10;;;;;;;26.77;24.23;;;;;;;19.55;100.00;98651.91;2087717;28;20457;-76
2021/07/27 01:18:17;;;;;;;27.57;24.80;;;;;;;19.53;100.00;98658.81;2088793;28;20492;-76
2021/07/27 01:19:30;;;;;;;26.87;24.17;;;;;;;19.48;100.00;98662.63;2088912;28;20473;-76
2021/07/27 01:20:46;;;;;;;27.70;25.40;;;;;;;19.42;100.00;98658.66;2088565;28;20499;-76
2021/07/27 01:37:53;;;;;;;26.03;23.83;;;;;;;19.34;100.00;98652.34;2087836;28;20523;-76
2021/07/27 01:39:05;;;;;;;27.57;25.27;;;;;;;19.34;100.00;98657.00;2088300;28;20497;-76
2021/07/27 01:40:08;;;;;;;27.00;24.63;;;;;;;19.27;100.00;98665.00;2088724;28;20440;-76
2021/07/27 01:42:24;;;;;;;26.10;23.83;;;;;;;19.13;100.00;98669.06;2086989;28;20823;-76
2021/07/27 01:43:30;;;;;;;24.67;22.57;;;;;;;19.11;100.00;98671.34;2088405;28;20454;-76
2021/07/27 01:44:30;;;;;;;25.80;23.67;;;;;;;19.13;100.00;98677.16;2088041;28;20238;-78
2021/07/27 01:45:32;;;;;;;27.20;24.53;;;;;;;19.09;100.00;98684.41;2088672;28;20444;-76
2021/07/27 01:46:34;;;;;;;26.60;24.50;;;;;;;19.06;100.00;98690.56;2088726;28;20751;-76
2021/07/27 01:47:35;;;;;;;27.53;25.33;;;;;;;19.03;100.00;98687.81;2088646;28;20473;-76
2021/07/27 01:48:36;;;;;;;25.13;23.13;;;;;;;19.02;100.00;98691.63;2088650;28;20473;-76
2021/07/27 01:49:38;;;;;;;25.67;23.57;;;;;;;19.01;100.00;98690.84;2087432;28;20468;-75
2021/07/27 01:50:40;;;;;;;25.40;23.43;;;;;;;19.05;100.00;98699.03;2087779;28;20238;-75
2021/07/27 01:51:46;;;;;;;26.43;23.93;;;;;;;19.12;100.00;98694.53;2088630;28;20475;-75
2021/07/27 01:52:49;;;;;;;27.50;25.10;;;;;;;19.19;100.00;98694.63;2088630;28;20532;-75
2021/07/27 01:53:51;;;;;;;28.23;25.83;;;;;;;19.27;100.00;98700.94;2088582;28;20453;-75
2021/07/27 01:55:08;;;;;;;27.57;24.97;;;;;;;19.22;100.00;98698.56;2088681;28;20441;-75
2021/07/27 01:56:09;;;;;;;26.70;24.17;;;;;;;19.18;100.00;98712.00;2087235;28;20795;-75
2021/07/27 01:57:10;;;;;;;26.67;24.57;;;;;;;19.16;100.00;98708.88;2087881;28;20508;-75
2021/07/27 01:58:12;;;;;;;27.57;24.70;;;;;;;19.13;100.00;98712.31;2087954;28;20265;-75
2021/07/27 01:59:13;;;;;;;27.00;24.60;;;;;;;19.10;100.00;98718.44;2087920;28;20450;-75
2021/07/27 02:00:15;;;;;;;27.87;25.43;;;;;;;19.07;100.00;98719.16;2088153;28;20453;-76
2021/07/27 02:01:18;;;;;;;27.47;25.27;;;;;;;19.08;100.00;98720.72;2087819;28;20449;-76
2021/07/27 02:02:19;;;;;;;29.40;26.83;;;;;;;19.08;100.00;98734.25;2079944;28;20522;-75
2021/07/27 02:03:22;;;;;;;27.57;24.97;;;;;;;19.08;100.00;98738.88;2088076;28;20452;-76
2021/07/27 02:04:22;;;;;;;28.73;26.17;;;;;;;19.04;100.00;98741.53;2087643;28;20252;-75
2021/07/27 02:05:24;;;;;;;27.10;24.90;;;;;;;19.06;100.00;98750.06;2087963;28;20997;-76
2021/07/27 02:06:24;;;;;;;26.43;24.20;;;;;;;19.06;100.00;98749.28;2087893;28;20379;-76
2021/07/27 02:07:26;;;;;;;26.73;24.50;;;;;;;19.06;100.00;98750.06;2088550;28;20465;-75
2021/07/27 02:08:26;;;;;;;27.40;25.20;;;;;;;19.09;100.00;98756.66;2088688;28;20228;-76
2021/07/27 02:09:28;;;;;;;26.83;24.70;;;;;;;19.08;100.00;98755.09;2088478;28;20990;-76
2021/07/27 02:10:30;;;;;;;27.50;25.30;;;;;;;19.08;100.00;98764.00;2088593;28;20288;-76
2021/07/27 02:11:38;;;;;;;27.00;24.77;;;;;;;19.09;100.00;98762.06;2088697;28;20456;-76
2021/07/27 02:12:49;;;;;;;27.87;25.77;;;;;;;19.15;100.00;98772.25;2088097;28;20530;-77
2021/07/27 02:13:53;;;;;;;27.03;25.00;;;;;;;19.19;100.00;98775.78;2088519;28;20970;-78
2021/07/27 02:15:04;;;;;;;27.10;25.00;;;;;;;19.32;100.00;98778.31;2088255;28;20454;-76
2021/07/27 02:16:06;;;;;;;27.23;25.13;;;;;;;19.34;100.00;98778.72;2087795;28;20453;-78
2021/07/27 02:17:06;;;;;;;28.80;26.37;;;;;;;19.35;100.00;98772.19;2079570;28;20537;-78
2021/07/27 02:18:08;;;;;;;27.47;25.07;;;;;;;19.35;100.00;98778.38;2087596;28;20461;-76
2021/07/27 02:19:08;;;;;;;28.17;25.70;;;;;;;19.33;100.00;98777.94;2088485;28;20270;-77
2021/07/27 02:20:10;;;;;;;27.13;25.03;;;;;;;19.36;100.00;98793.44;2087785;28;20463;-78
2021/07/27 02:21:11;;;;;;;27.20;25.03;;;;;;;19.32;100.00;98800.75;2079570;28;20230;-77
2021/07/27 02:22:13;;;;;;;28.13;25.50;;;;;;;19.39;100.00;98800.88;2087796;28;20485;-78
2021/07/27 02:23:15;;;;;;;27.37;24.97;;;;;;;19.34;100.00;98786.84;2088458;28;20503;-78
2021/07/27 02:24:16;;;;;;;28.43;25.83;;;;;;;19.29;100.00;98789.88;2088522;28;20891;-78
2021/07/27 02:25:17;;;;;;;27.20;24.70;;;;;;;19.27;100.00;98819.97;2088570;28;20449;-77
2021/07/27 02:26:19;;;;;;;26.87;24.27;;;;;;;19.25;100.00;98864.75;2088517;28;20309;-78
2021/07/27 02:27:22;;;;;;;25.53;23.40;;;;;;;19.22;100.00;98879.00;2087957;28;20450;-78
2021/07/27 02:28:23;;;;;;;26.60;24.40;;;;;;;19.14;100.00;98859.16;2087457;28;20461;-77
2021/07/27 02:29:25;;;;;;;26.67;24.47;;;;;;;19.16;100.00;98868.47;2088472;28;20465;-76
2021/07/27 02:30:25;;;;;;;28.30;25.90;;;;;;;19.23;100.00;98867.03;2088418;28;20317;-77
2021/07/27 02:31:32;;;;;;;28.60;26.10;;;;;;;19.22;100.00;98879.00;2087802;28;20468;-77
2021/07/27 02:32:33;;;;;;;29.67;26.70;;;;;;;19.16;100.00;98894.72;2087922;28;20272;-78
2021/07/27 02:33:37;;;;;;;29.03;26.43;;;;;;;19.12;100.00;98883.84;2088547;28;20445;-77
2021/07/27 02:34:38;;;;;;;30.00;27.27;;;;;;;19.06;100.00;98879.84;2088055;28;20861;-77
2021/07/27 02:35:40;;;;;;;29.47;26.87;;;;;;;19.08;100.00;98872.16;2087691;28;20465;-76
2021/07/27 02:36:40;;;;;;;29.53;26.83;;;;;;;19.09;100.00;98872.94;2087775;28;20250;-77
2021/07/27 02:37:42;;;;;;;29.87;27.30;;;;;;;19.07;100.00;98865.19;2088478;28;20452;-78
2021/07/27 02:38:43;;;;;;;29.77;27.17;;;;;;;19.07;100.00;98867.13;2087378;28;20219;-77
2021/07/27 02:39:44;;;;;;;30.10;27.27;;;;;;;19.07;100.00;98870.59;2087652;28;20454;-78
2021/07/27 02:40:45;;;;;;;29.00;26.50;;;;;;;19.08;100.00;98876.78;2088468;28;20223;-78
2021/07/27 02:41:48;;;;;;;29.27;26.30;;;;;;;19.09;100.00;98871.03;2088542;28;20469;-78
2021/07/27 02:42:49;;;;;;;29.07;26.10;;;;;;;19.13;100.00;98844.06;2087699;28;20229;-78
2021/07/27 02:43:50;;;;;;;29.37;26.87;;;;;;;19.19;100.00;98831.78;2087648;28;20430;-77
2021/07/27 02:44:51;;;;;;;28.73;26.43;;;;;;;19.19;100.00;98834.50;2088468;28;20223;-78
2021/07/27 02:45:53;;;;;;;28.97;26.47;;;;;;;19.19;100.00;98835.28;2088147;28;20466;-77
2021/07/27 02:46:53;;;;;;;27.57;25.50;;;;;;;19.18;100.00;98841.81;2088420;28;20230;-76
2021/07/27 02:47:55;;;;;;;28.70;26.33;;;;;;;19.13;100.00;98841.34;2087961;28;20461;-76
2021/07/27 02:48:59;;;;;;;29.20;26.60;;;;;;;19.15;100.00;98847.97;2087736;28;20249;-76
2021/07/27 02:50:01;;;;;;;28.90;26.33;;;;;;;19.13;100.00;98820.50;2088383;28;20532;-76
2021/07/27 02:51:02;;;;;;;28.97;26.40;;;;;;;19.06;100.00;98823.06;2086868;28;20457;-76
2021/07/27 02:52:04;;;;;;;30.40;27.87;;;;;;;19.03;100.00;98826.50;2079464;28;20446;-76
2021/07/27 02:53:04;;;;;;;29.47;26.97;;;;;;;19.01;100.00;98831.47;2087686;28;20469;-76
2021/07/27 02:54:07;;;;;;;30.07;27.63;;;;;;;18.98;100.00;98824.06;2088438;28;20458;-76
2021/07/27 02:55:09;;;;;;;30.30;27.77;;;;;;;18.95;100.00;98822.09;2087454;28;20309;-76
2021/07/27 02:56:10;;;;;;;29.83;27.60;;;;;;;18.91;100.00;98808.50;2089158;28;20497;-76
2021/07/27 02:57:12;;;;;;;31.17;28.27;;;;;;;18.91;100.00;98815.81;2089158;28;20548;-76
2021/07/27 02:58:33;;;;;;;30.67;28.03;;;;;;;18.91;100.00;98813.13;2089181;28;20449;-77
2021/07/27 02:59:34;;;;;;;31.63;28.57;;;;;;;18.89;100.00;98805.38;2088899;28;20449;-76
2021/07/27 03:00:35;;;;;;;30.27;27.77;;;;;;;18.90;100.00;98803.44;2080784;28;20546;-76
2021/07/27 03:01:36;;;;;;;30.17;27.83;;;;;;;18.89;100.00;98801.88;2089033;28;20226;-76
2021/07/27 03:02:38;;;;;;;32.77;29.90;;;;;;;18.86;100.00;98799.91;2089508;28;20457;-75
2021/07/27 03:03:38;;;;;;;33.03;30.10;;;;;;;18.82;100.00;98799.81;2089005;28;20258;-76
2021/07/27 03:04:40;;;;;;;31.70;28.80;;;;;;;18.79;100.00;98791.66;2089098;28;20460;-75
2021/07/27 03:05:41;;;;;;;31.70;28.97;;;;;;;18.77;100.00;98792.00;2089022;28;20230;-76
2021/07/27 03:06:45;;;;;;;31.60;29.10;;;;;;;18.77;100.00;98793.94;2089256;28;20531;-76
2021/07/27 03:07:50;;;;;;;31.60;28.73;;;;;;;18.74;100.00;98786.53;2089129;28;20245;-76
2021/07/27 03:09:03;;;;;;;31.30;28.60;;;;;;;18.73;100.00;98798.47;2089877;28;20463;-76
2021/07/27 03:10:19;;;;;;;30.43;27.73;;;;;;;18.73;100.00;98801.19;2089361;28;20461;-77
2021/07/27 03:11:23;;;;;;;30.03;27.47;;;;;;;18.70;100.00;98799.97;2089369;28;20461;-76
2021/07/27 03:12:25;;;;;;;31.50;27.17;;;;;;;18.68;100.00;98796.84;2089407;28;20445;-75
2021/07/27 03:13:26;;;;;;;30.63;27.63;;;;;;;18.70;100.00;98801.91;2089880;28;20877;-76
2021/07/27 03:14:27;;;;;;;29.67;26.50;;;;;;;18.68;100.00;98791.44;2089876;28;20460;-75
2021/07/27 03:15:29;;;;;;;29.53;26.83;;;;;;;18.67;100.00;98797.97;2088999;28;20456;-77
2021/07/27 03:16:30;;;;;;;29.90;27.27;;;;;;;18.64;100.00;98794.03;2089097;28;20293;-76
2021/07/27 03:17:32;;;;;;;29.17;26.50;;;;;;;18.66;100.00;98798.31;2089070;28;20441;-76
2021/07/27 03:18:32;;;;;;;33.90;27.97;;;;;;;18.70;100.00;98807.31;2088772;28;20297;-76
2021/07/27 03:19:34;;;;;;;30.07;27.20;;;;;;;18.70;100.00;98818.91;2089066;28;20449;-76
2021/07/27 03:20:35;;;;;;;30.47;27.60;;;;;;;18.67;100.00;98808.00;2088906;28;20318;-76
2021/07/27 03:21:36;;;;;;;30.00;27.30;;;;;;;18.63;100.00;98807.91;2089038;28;20446;-76
2021/07/27 03:22:37;;;;;;;30.37;27.63;;;;;;;18.59;100.00;98805.13;2088553;28;20227;-76
2021/07/27 03:23:38;;;;;;;29.20;26.57;;;;;;;18.57;100.00;98806.63;2080593;28;20447;-75
2021/07/27 03:24:39;;;;;;;29.80;27.07;;;;;;;18.57;100.00;98804.69;2080581;28;20231;-77
2021/07/27 03:25:41;;;;;;;30.87;27.97;;;;;;;18.61;100.00;98793.97;2089027;28;20445;-77
2021/07/27 03:26:41;;;;;;;29.87;27.27;;;;;;;18.60;100.00;98801.31;2089687;28;20233;-76
2021/07/27 03:27:45;;;;;;;29.87;26.93;;;;;;;18.58;100.00;98795.44;2088860;28;20461;-76
2021/07/27 03:28:47;;;;;;;29.17;26.53;;;;;;;18.56;100.00;98795.03;2089084;28;20225;-76
2021/07/27 03:29:48;;;;;;;29.40;26.60;;;;;;;18.57;100.00;98783.06;2089616;28;20449;-76
2021/07/27 03:30:50;;;;;;;29.43;26.40;;;;;;;18.58;100.00;98781.94;2089597;28;20457;-76
2021/07/27 03:31:51;;;;;;;30.03;26.83;;;;;;;18.59;100.00;98780.81;2088709;28;21011;-76
2021/07/27 03:32:52;;;;;;;30.13;27.30;;;;;;;18.59;100.00;98786.22;2088421;28;20516;-75
2021/07/27 03:33:54;;;;;;;30.07;27.17;;;;;;;18.60;100.00;98782.38;2089183;28;20454;-75
2021/07/27 03:34:55;;;;;;;30.20;27.47;;;;;;;18.64;100.00;98785.16;2088767;28;20231;-74
2021/07/27 03:35:56;;;;;;;30.07;27.23;;;;;;;18.64;100.00;98783.22;2088865;28;20457;-75
2021/07/27 03:36:58;;;;;;;31.43;28.23;;;;;;;18.68;100.00;98790.63;2088741;28;20226;-76
2021/07/27 03:37:58;;;;;;;30.67;27.87;;;;;;;18.73;100.00;98788.44;2088819;28;20485;-75
2021/07/27 03:39:00;;;;;;;31.53;28.63;;;;;;;18.72;100.00;98778.00;2089588;28;20963;-75
2021/07/27 03:40:01;;;;;;;31.33;28.53;;;;;;;18.69;100.00;98789.53;2089707;28;20695;-75
2021/07/27 03:41:04;;;;;;;30.80;27.60;;;;;;;18.68;100.00;98788.75;2088758;28;20442;-75
2021/07/27 03:42:05;;;;;;;30.47;27.73;;;;;;;18.67;100.00;98778.28;2080741;28;20454;-78
2021/07/27 03:43:08;;;;;;;31.53;28.60;;;;;;;18.67;100.00;98775.56;2088934;28;20453;-78
2021/07/27 03:44:08;;;;;;;32.23;29.23;;;;;;;18.66;100.00;98777.50;2089283;28;20230;-74
2021/07/27 03:45:11;;;;;;;31.63;28.37;;;;;;;18.67;100.00;98780.97;2089598;28;20457;-75
2021/07/27 03:46:12;;;;;;;31.33;28.50;;;;;;;18.65;100.00;98778.63;2088633;28;20250;-75
2021/07/27 03:47:13;;;;;;;29.90;27.20;;;;;;;18.74;100.00;98773.00;2088837;28;20454;-75
2021/07/27 03:48:14;;;;;;;29.70;26.93;;;;;;;18.74;100.00;98770.31;2088794;28;20225;-76
2021/07/27 03:49:16;;;;;;;29.30;26.60;;;;;;;18.82;100.00;98775.50;2088875;28;20465;-76
2021/07/27 03:50:16;;;;;;;30.50;27.70;;;;;;;18.84;100.00;98783.22;2089068;28;20688;-75
2021/07/27 03:51:18;;;;;;;30.47;27.60;;;;;;;18.86;100.00;98779.06;2080487;28;20826;-75
2021/07/27 03:52:19;;;;;;;30.93;28.03;;;;;;;18.90;100.00;98779.88;2080584;28;20230;-75
2021/07/27 03:53:21;;;;;;;31.03;27.93;;;;;;;18.91;100.00;98772.56;2080282;28;20500;-76
2021/07/27 03:54:22;;;;;;;29.33;26.83;;;;;;;18.87;100.00;98769.81;2088354;28;20305;-74
2021/07/27 03:55:24;;;;;;;29.57;26.97;;;;;;;18.89;100.00;98769.44;2088651;28;20508;-75
2021/07/27 03:56:24;;;;;;;30.43;27.13;;;;;;;18.87;100.00;98769.81;2088858;28;20305;-75
2021/07/27 03:57:26;;;;;;;30.40;27.50;;;;;;;18.88;100.00;98765.19;2089555;28;20450;-75
2021/07/27 03:58:32;;;;;;;30.00;27.40;;;;;;;18.89;100.00;98780.25;2088712;28;20235;-75
2021/07/27 03:59:33;;;;;;;31.50;28.50;;;;;;;18.88;100.00;98773.28;2080871;28;20533;-75
2021/07/27 04:00:35;;;;;;;30.47;27.97;;;;;;;18.88;100.00;98773.28;2088741;28;20449;-75
2021/07/27 04:01:36;;;;;;;30.57;27.57;;;;;;;18.88;100.00;98776.00;2089452;28;20453;-75
2021/07/27 04:02:38;;;;;;;28.73;26.03;;;;;;;18.88;100.00;98774.06;2088237;28;20476;-74
2021/07/27 04:03:38;;;;;;;31.43;28.20;;;;;;;18.91;100.00;98781.44;2088764;28;20461;-75
2021/07/27 04:04:41;;;;;;;30.90;27.83;;;;;;;18.94;100.00;98785.38;2089546;28;21002;-76
2021/07/27 04:05:42;;;;;;;30.90;27.70;;;;;;;18.92;100.00;98777.59;2089593;28;20415;-75
2021/07/27 04:06:44;;;;;;;31.20;28.23;;;;;;;18.98;100.00;98791.63;2087792;28;20517;-76
2021/07/27 04:07:44;;;;;;;32.13;28.67;;;;;;;18.99;100.00;98784.28;2080068;28;20549;-75
2021/07/27 04:08:46;;;;;;;31.40;28.60;;;;;;;19.03;100.00;98787.84;2088801;28;20496;-75
2021/07/27 04:09:46;;;;;;;30.83;28.03;;;;;;;19.03;100.00;98788.63;2089138;28;20250;-75
2021/07/27 04:10:48;;;;;;;30.70;27.90;;;;;;;19.07;100.00;98784.06;2088528;28;20457;-75
2021/07/27 04:11:49;;;;;;;30.47;27.83;;;;;;;19.10;100.00;98780.63;2088487;28;20234;-75
2021/07/27 04:12:51;;;;;;;30.53;27.37;;;;;;;19.12;100.00;98778.38;2089482;28;20449;-78
2021/07/27 04:13:53;;;;;;;30.13;27.10;;;;;;;19.18;100.00;98774.22;2088279;28;20226;-75
2021/07/27 04:14:54;;;;;;;30.37;27.57;;;;;;;19.28;100.00;98763.94;2088547;28;20446;-77
2021/07/27 04:15:55;;;;;;;30.50;27.67;;;;;;;19.31;100.00;98768.63;2089291;28;20916;-77
2021/07/27 04:16:56;;;;;;;29.57;26.73;;;;;;;19.33;100.00;98759.00;2089320;28;20853;-77
2021/07/27 04:17:57;;;;;;;30.90;27.80;;;;;;;19.33;100.00;98760.94;2088515;28;20234;-78
2021/07/27 04:18:59;;;;;;;30.50;27.80;;;;;;;19.35;100.00;98751.31;2088497;28;20450;-78
2021/07/27 04:19:59;;;;;;;31.23;28.07;;;;;;;19.38;100.00;98750.59;2088569;28;20239;-77
2021/07/27 04:21:01;;;;;;;30.30;27.70;;;;;;;19.39;100.00;98754.88;2089226;28;20442;-77
2021/07/27 04:22:02;;;;;;;35.00;28.27;;;;;;;19.40;100.00;98758.34;2088783;28;20283;-78
2021/07/27 04:23:04;;;;;;;34.50;31.40;;;;;;;19.44;100.00;98754.56;2080264;28;21012;-78
2021/07/27 04:24:05;;;;;;;34.70;31.93;;;;;;;19.47;100.00;98755.78;2080353;28;20227;-78
2021/07/27 04:25:07;;;;;;;33.13;30.10;;;;;;;19.51;100.00;98748.47;2088621;28;20456;-77
2021/07/27 04:26:08;;;;;;;30.67;27.77;;;;;;;19.56;100.00;98750.91;2088916;28;20233;-78
2021/07/27 04:27:10;;;;;;;30.20;27.10;;;;;;;19.59;100.00;98755.59;2089224;28;20464;-77
2021/07/27 04:28:10;;;;;;;30.17;27.47;;;;;;;19.64;100.00;98749.88;2089086;28;20249;-77
2021/07/27 04:29:14;;;;;;;30.63;27.53;;;;;;;19.66;100.00;98750.28;2088484;28;22775;-77
2021/07/27 04:30:15;;;;;;;30.03;27.17;;;;;;;19.72;100.00;98748.84;2080243;28;20311;-78
2021/07/27 04:31:16;;;;;;;28.97;26.20;;;;;;;19.76;100.00;98746.19;2088354;28;20449;-78
2021/07/27 04:32:17;;;;;;;31.07;27.40;;;;;;;19.81;100.00;98745.06;2080535;28;20769;-79
2021/07/27 04:33:19;;;;;;;29.87;26.77;;;;;;;19.84;100.00;98747.06;2088592;28;20853;-78
2021/07/27 04:34:19;;;;;;;28.63;26.20;;;;;;;19.88;100.00;98739.75;2088411;28;20219;-77
2021/07/27 04:35:21;;;;;;;29.97;27.27;;;;;;;19.93;100.00;98740.25;2088524;28;20448;-78
2021/07/27 04:36:21;;;;;;;30.83;27.93;;;;;;;19.96;100.00;98744.13;2088806;28;20226;-75
2021/07/27 04:37:23;;;;;;;31.70;28.60;;;;;;;19.98;100.00;98749.97;2089059;28;20920;-77
2021/07/27 04:38:24;;;;;;;30.50;27.47;;;;;;;20.00;100.00;98753.09;2088243;28;20223;-77
2021/07/27 04:39:27;;;;;;;29.17;26.57;;;;;;;20.00;100.00;98750.41;2088480;28;20464;-77
2021/07/27 04:40:27;;;;;;;28.97;26.30;;;;;;;20.00;100.00;98745.75;2089286;28;20238;-78
2021/07/27 04:41:30;;;;;;;28.53;25.77;;;;;;;19.99;100.00;98748.84;2089300;28;20437;-78
2021/07/27 04:42:31;;;;;;;29.80;26.70;;;;;;;19.99;100.00;98740.72;2089185;28;20556;-77
2021/07/27 04:43:33;;;;;;;28.27;25.63;;;;;;;20.00;100.00;98744.97;2089148;28;20467;-77
2021/07/27 04:44:36;;;;;;;29.37;26.57;;;;;;;19.98;100.00;98739.94;2088758;28;20247;-78
2021/07/27 04:45:37;;;;;;;29.27;26.47;;;;;;;19.99;100.00;98736.09;2080199;28;20453;-78
2021/07/27 04:46:38;;;;;;;28.23;25.67;;;;;;;19.98;100.00;98745.34;2087980;28;20790;-77
2021/07/27 04:47:40;;;;;;;29.17;26.47;;;;;;;19.97;100.00;98732.16;2088536;28;20504;-77
2021/07/27 04:48:40;;;;;;;29.40;26.73;;;;;;;19.98;100.00;98744.53;2089112;28;20676;-77
2021/07/27 04:49:42;;;;;;;29.07;26.47;;;;;;;19.97;100.00;98743.00;2089063;28;20885;-77
2021/07/27 04:50:45;;;;;;;29.93;26.87;;;;;;;19.96;100.00;98746.84;2088199;28;20219;-80
2021/07/27 04:51:45;;;;;;;28.63;26.17;;;;;;;19.94;100.00;98743.72;2088251;28;20496;-78
2021/07/27 04:52:51;;;;;;;28.73;25.87;;;;;;;19.93;100.00;98734.06;2089049;28;20441;-80
2021/07/27 04:53:58;;;;;;;28.50;26.07;;;;;;;19.89;100.00;98741.31;2088684;28;20272;-76
2021/07/27 04:55:00;;;;;;;29.37;26.57;;;;;;;19.89;100.00;98742.09;2089018;28;20448;-78
2021/07/27 04:56:01;;;;;;;28.77;26.30;;;;;;;19.91;100.00;98739.84;2088293;28;20453;-77
2021/07/27 04:57:02;;;;;;;29.03;26.43;;;;;;;19.91;100.00;98733.63;2088258;28;20448;-78
2021/07/27 04:58:03;;;;;;;28.00;25.60;;;;;;;19.88;100.00;98732.44;2088220;28;20449;-79
2021/07/27 04:59:05;;;;;;;28.57;25.60;;;;;;;19.89;100.00;98727.78;2088185;28;20517;-78